createdAt,value
2019-06-10T00:02:41.334Z,3.70
2019-06-10T00:06:45.942Z,10.80
2019-06-10T00:10:51.282Z,1.87
2019-06-10T00:14:58.735Z,4.73
2019-06-10T00:19:06.827Z,2.77
2019-06-10T00:23:12.000Z,2.53
2019-06-10T00:27:17.664Z,3.30
2019-06-10T00:31:23.418Z,3.80
2019-06-10T00:35:28.485Z,2.40
2019-06-10T00:39:33.564Z,4.27
2019-06-10T00:43:41.010Z,4.00
2019-06-10T00:47:45.635Z,6.63
2019-06-10T00:51:51.190Z,6.47
2019-06-10T00:55:56.425Z,5.10
2019-06-10T01:00:12.079Z,3.70
2019-06-10T01:04:09.339Z,4.63
2019-06-10T01:08:15.796Z,5.40
2019-06-10T01:12:21.255Z,5.13
2019-06-10T01:16:26.420Z,3.33
2019-06-10T01:20:32.514Z,2.90
2019-06-10T01:24:37.759Z,3.60
2019-06-10T01:28:43.168Z,4.37
2019-06-10T01:32:50.511Z,2.40
2019-06-10T01:36:55.371Z,6.60
2019-06-10T01:41:01.499Z,4.73
2019-06-10T01:45:06.867Z,5.03
2019-06-10T01:49:14.707Z,2.87
2019-06-10T01:53:21.432Z,5.83
2019-06-10T01:57:26.096Z,5.07
2019-06-10T02:01:41.534Z,4.43
2019-06-10T02:05:46.628Z,5.33
2019-06-10T02:09:52.776Z,4.20
2019-06-10T02:13:58.040Z,5.77
2019-06-10T02:18:03.200Z,4.43
2019-06-10T02:22:08.286Z,3.47
2019-06-10T02:26:14.912Z,2.07
2019-06-10T02:30:38.578Z,3.93
2019-06-10T02:34:27.787Z,3.50
2019-06-10T02:38:38.818Z,2.70
2019-06-10T02:42:43.614Z,4.10
2019-06-10T02:46:49.144Z,3.20
2019-06-10T02:51:07.041Z,3.30
2019-06-10T02:55:15.303Z,2.33
2019-06-10T02:59:21.557Z,3.40
2019-06-10T03:03:35.298Z,7.10
2019-06-10T03:07:35.537Z,4.93
2019-06-10T03:11:39.647Z,3.57
2019-06-10T03:15:48.666Z,4.40
2019-06-10T03:19:53.826Z,2.50
2019-06-10T03:23:58.916Z,4.23
2019-06-10T03:28:04.125Z,5.17
2019-06-10T03:32:09.218Z,2.97
2019-06-10T03:36:14.288Z,3.90
2019-06-10T03:40:20.531Z,4.17
2019-06-10T03:44:27.099Z,3.93
2019-06-10T03:48:34.204Z,6.43
2019-06-10T03:52:39.686Z,8.00
2019-06-10T03:56:44.866Z,8.67
2019-06-10T04:00:52.110Z,6.23
2019-06-10T04:04:56.834Z,4.67
2019-06-10T04:09:02.775Z,3.47
2019-06-10T04:13:09.135Z,6.93
2019-06-10T04:17:14.230Z,5.83
2019-06-10T04:21:20.335Z,6.10
2019-06-10T04:25:28.270Z,4.67
2019-06-10T04:29:33.050Z,6.03
2019-06-10T04:33:39.192Z,6.73
2019-06-10T04:37:44.345Z,4.17
2019-06-10T04:41:49.469Z,4.27
2019-06-10T04:45:54.577Z,4.93
2019-06-10T04:49:59.722Z,3.13
2019-06-10T04:54:04.955Z,4.03
2019-06-10T04:58:10.085Z,7.07
2019-06-10T05:02:15.193Z,4.13
2019-06-10T05:06:21.747Z,5.23
2019-06-10T05:10:28.353Z,4.23
2019-06-10T05:14:34.681Z,4.13
2019-06-10T05:18:42.475Z,7.97
2019-06-10T05:22:47.011Z,4.10
2019-06-10T05:26:52.725Z,5.17
2019-06-10T05:30:57.910Z,5.43
2019-06-10T05:35:03.681Z,5.10
2019-06-10T05:39:08.893Z,6.93
2019-06-10T05:43:14.114Z,5.10
2019-06-10T05:47:19.277Z,4.07
2019-06-10T05:51:25.884Z,4.87
2019-06-10T05:55:33.466Z,5.23
2019-06-10T05:59:37.895Z,8.40
2019-06-10T06:03:43.853Z,6.90
2019-06-10T06:08:02.291Z,7.03
2019-06-10T06:11:56.395Z,10.13
2019-06-10T06:16:03.318Z,7.07
2019-06-10T06:20:10.135Z,4.13
2019-06-10T06:24:15.343Z,10.63
2019-06-10T06:28:22.866Z,6.57
2019-06-10T06:32:28.370Z,4.70
2019-06-10T06:36:35.366Z,5.63
2019-06-10T06:40:43.539Z,7.40
2019-06-10T06:44:48.439Z,5.13
2019-06-10T06:48:53.540Z,6.62
2019-06-10T06:53:19.969Z,8.83
2019-06-10T06:57:05.475Z,8.17
2019-06-10T07:01:14.553Z,6.17
2019-06-10T07:05:18.685Z,5.42
2019-06-10T07:09:24.176Z,8.60
2019-06-10T07:13:31.496Z,11.10
2019-06-10T07:17:38.748Z,5.62
2019-06-10T07:22:02.309Z,8.80
2019-06-10T07:25:53.076Z,8.07
2019-06-10T07:29:57.429Z,11.95
2019-06-10T07:34:02.737Z,8.58
2019-06-10T07:38:07.811Z,6.47
2019-06-10T07:42:13.611Z,6.35
2019-06-10T07:46:18.781Z,7.73
2019-06-10T07:50:24.204Z,7.60
2019-06-10T07:54:29.392Z,7.47
2019-06-10T07:58:36.601Z,5.77
2019-06-10T08:02:44.024Z,9.35
2019-06-10T08:06:49.996Z,7.85
2019-06-10T08:10:55.228Z,9.93
2019-06-10T08:15:02.717Z,15.60
2019-06-10T08:19:26.127Z,7.25
2019-06-10T08:23:16.389Z,7.70
2019-06-10T08:27:22.736Z,9.20
2019-06-10T08:31:27.975Z,8.35
2019-06-10T08:35:43.932Z,14.87
2019-06-10T08:39:40.226Z,6.85
2019-06-10T08:43:48.467Z,8.63
2019-06-10T08:47:54.243Z,8.85
2019-06-10T08:52:02.500Z,10.82
2019-06-10T08:56:07.519Z,12.10
2019-06-10T09:00:16.298Z,10.55
2019-06-10T09:04:22.675Z,8.05
2019-06-10T09:08:27.991Z,7.08
2019-06-10T09:12:36.614Z,8.80
2019-06-10T09:16:41.894Z,10.58
2019-06-10T09:20:52.423Z,7.70
2019-06-10T09:24:56.333Z,8.48
2019-06-10T09:29:02.946Z,11.70
2019-06-10T09:33:07.410Z,8.38
2019-06-10T09:37:12.517Z,10.38
2019-06-10T09:41:17.876Z,6.10
2019-06-10T09:45:23.260Z,9.25
2019-06-10T09:49:28.381Z,6.65
2019-06-10T09:53:42.301Z,9.70
2019-06-10T09:57:41.294Z,7.05
2019-06-10T10:01:50.983Z,10.75
2019-06-10T10:06:06.462Z,8.73
2019-06-10T10:10:04.209Z,7.78
2019-06-10T10:14:10.844Z,9.03
2019-06-10T10:18:16.189Z,10.78
2019-06-10T10:22:22.891Z,6.67
2019-06-10T10:26:28.151Z,14.68
2019-06-10T10:30:34.292Z,11.53
2019-06-10T10:34:39.524Z,9.18
2019-06-10T10:38:44.817Z,10.13
2019-06-10T10:42:56.747Z,8.03
2019-06-10T10:46:57.273Z,9.03
2019-06-10T10:51:03.436Z,10.08
2019-06-10T10:55:09.074Z,9.45
2019-06-10T10:59:14.190Z,7.12
2019-06-10T11:03:19.308Z,11.78
2019-06-10T11:07:24.441Z,13.43
2019-06-10T11:11:33.133Z,10.85
2019-06-10T11:15:37.400Z,7.90
2019-06-10T11:19:42.564Z,7.25
2019-06-10T11:23:48.120Z,11.63
2019-06-10T11:27:55.738Z,6.20
2019-06-10T11:31:59.648Z,10.98
2019-06-10T11:36:04.630Z,8.05
2019-06-10T11:40:10.007Z,10.63
2019-06-10T11:44:15.227Z,8.60
2019-06-10T11:48:20.457Z,8.88
2019-06-10T11:52:25.588Z,12.78
2019-06-10T11:56:33.499Z,8.28
2019-06-10T12:00:37.656Z,6.42
2019-06-10T12:04:42.752Z,7.00
2019-06-10T12:08:48.939Z,11.33
2019-06-10T12:12:58.184Z,8.05
2019-06-10T12:17:29.756Z,8.45
2019-06-10T12:21:07.736Z,8.75
2019-06-10T12:25:31.372Z,5.65
2019-06-10T12:29:22.433Z,6.42
2019-06-10T12:33:26.897Z,8.15
2019-06-10T12:37:33.817Z,6.83
2019-06-10T12:41:40.590Z,5.72
2019-06-10T12:45:46.672Z,7.65
2019-06-10T12:49:53.473Z,9.25
2019-06-10T12:53:59.429Z,8.75
2019-06-10T12:58:06.057Z,3.72
2019-06-10T13:02:21.986Z,5.05
2019-06-10T13:06:18.545Z,5.95
2019-06-10T13:10:37.053Z,6.67
2019-06-10T13:14:43.510Z,3.60
2019-06-10T13:18:48.962Z,5.67
2019-06-10T13:22:54.035Z,5.80
2019-06-10T13:26:59.159Z,6.58
2019-06-10T13:31:06.554Z,2.98
2019-06-10T13:35:12.521Z,5.37
2019-06-10T13:39:17.650Z,5.70
2019-06-10T13:43:23.369Z,3.72
2019-06-10T13:47:28.724Z,4.45
2019-06-10T13:51:35.605Z,4.00
2019-06-10T13:55:40.731Z,5.17
2019-06-10T13:59:46.678Z,9.78
2019-06-10T14:03:53.814Z,9.97
2019-06-10T14:07:58.658Z,7.87
2019-06-10T14:12:04.048Z,6.00
2019-06-10T14:16:09.604Z,3.90
2019-06-10T14:20:15.529Z,5.10
2019-06-10T14:24:22.815Z,8.20
2019-06-10T14:28:39.989Z,9.08
2019-06-10T14:32:34.218Z,6.85
2019-06-10T14:36:39.314Z,8.93
2019-06-10T14:40:44.558Z,16.35
2019-06-10T14:44:49.652Z,21.35
2019-06-10T14:48:54.716Z,11.83
2019-06-10T14:53:02.210Z,10.78
2019-06-10T14:57:07.305Z,11.00
2019-06-10T15:01:19.730Z,3.25
2019-06-10T15:05:19.686Z,9.70
2019-06-10T15:09:24.812Z,19.67
2019-06-10T15:13:32.541Z,13.43
2019-06-10T15:17:36.721Z,6.40
2019-06-10T15:21:42.888Z,4.42
2019-06-10T15:25:52.323Z,9.07
2019-06-10T15:29:54.802Z,7.00
2019-06-10T15:33:59.934Z,7.53
2019-06-10T15:38:05.016Z,9.63
2019-06-10T15:42:11.495Z,6.23
2019-06-10T15:46:17.943Z,9.50
2019-06-10T15:50:26.732Z,9.73
2019-06-10T15:54:30.238Z,12.63
2019-06-10T15:58:35.333Z,11.60
2019-06-10T16:02:40.488Z,8.73
2019-06-10T16:06:45.733Z,9.38
2019-06-10T16:10:52.638Z,13.43
2019-06-10T16:14:57.919Z,9.65
2019-06-10T16:19:03.061Z,9.68
2019-06-10T16:23:08.173Z,15.13
2019-06-10T16:27:14.221Z,11.25
2019-06-10T16:31:21.217Z,15.85
2019-06-10T16:35:27.062Z,15.28
2019-06-10T16:39:32.687Z,14.15
2019-06-10T16:43:37.868Z,13.40
2019-06-10T16:47:43.193Z,15.72
2019-06-10T16:51:48.415Z,15.78
2019-06-10T16:55:53.485Z,14.13
2019-06-10T16:59:58.640Z,17.52
2019-06-10T17:04:03.728Z,17.23
2019-06-10T17:08:08.823Z,18.62
2019-06-10T17:12:13.940Z,17.30
2019-06-10T17:16:20.229Z,16.77
2019-06-10T17:20:27.742Z,14.43
2019-06-10T17:24:33.924Z,18.60
2019-06-10T17:28:39.284Z,23.07
2019-06-10T17:32:44.427Z,19.27
2019-06-10T17:36:49.508Z,27.50
2019-06-10T17:40:54.575Z,23.90
2019-06-10T17:44:59.661Z,28.90
2019-06-10T17:49:05.172Z,31.83
2019-06-10T17:53:12.573Z,28.63
2019-06-10T17:57:17.071Z,23.83
2019-06-10T18:01:23.914Z,23.42
2019-06-10T18:05:31.164Z,21.25
2019-06-10T18:09:37.141Z,28.03
2019-06-10T18:13:42.834Z,31.02
2019-06-10T18:17:48.257Z,24.00
2019-06-10T18:21:53.417Z,24.27
2019-06-10T18:25:58.636Z,23.37
2019-06-10T18:30:10.748Z,23.10
2019-06-10T18:34:12.968Z,21.30
2019-06-10T18:38:17.376Z,25.95
2019-06-10T18:42:23.525Z,22.03
2019-06-10T18:46:29.859Z,16.33
2019-06-10T18:50:36.708Z,17.47
2019-06-10T18:54:43.516Z,17.80
2019-06-10T18:58:48.838Z,19.90
2019-06-10T19:03:09.232Z,17.97
2019-06-10T19:07:02.864Z,16.03
2019-06-10T19:11:07.698Z,15.85
2019-06-10T19:15:14.098Z,9.00
2019-06-10T19:19:19.172Z,7.13
2019-06-10T19:23:24.262Z,5.12
2019-06-10T19:27:30.603Z,5.00
2019-06-10T19:31:39.215Z,4.10
2019-06-10T19:35:43.841Z,7.10
2019-06-10T19:39:53.216Z,7.23
2019-06-10T19:43:55.745Z,5.93
2019-06-10T19:48:03.129Z,5.43
2019-06-10T19:52:07.653Z,4.63
2019-06-10T19:56:13.116Z,4.27
2019-06-10T20:00:19.059Z,6.27
2019-06-10T20:04:24.091Z,5.37
2019-06-10T20:08:29.170Z,6.00
2019-06-10T20:12:34.349Z,4.47
2019-06-10T20:16:39.811Z,5.87
2019-06-10T20:20:47.252Z,7.47
2019-06-10T20:24:53.149Z,5.87
2019-06-10T20:28:58.224Z,7.53
2019-06-10T20:33:03.692Z,8.13
2019-06-10T20:37:08.746Z,10.67
2019-06-10T20:41:13.842Z,6.77
2019-06-10T20:45:19.214Z,7.97
2019-06-10T20:49:24.384Z,6.87
2019-06-10T20:53:29.596Z,8.03
2019-06-10T20:57:47.245Z,9.93
2019-06-10T21:01:44.482Z,8.20
2019-06-10T21:05:53.289Z,11.20
2019-06-10T21:09:59.065Z,12.63
2019-06-10T21:14:04.458Z,11.93
2019-06-10T21:18:09.934Z,12.50
2019-06-10T21:22:15.041Z,14.20
2019-06-10T21:26:20.126Z,12.20
2019-06-10T21:30:37.543Z,15.20
2019-06-10T21:34:32.705Z,9.83
2019-06-10T21:38:37.817Z,11.00
2019-06-10T21:42:47.894Z,10.20
2019-06-10T21:46:53.131Z,14.33
2019-06-10T21:50:58.351Z,11.27
2019-06-10T21:55:36.003Z,10.50
2019-06-10T22:05:07.038Z,15.63
2019-06-10T22:09:12.527Z,11.37
2019-06-10T22:13:17.648Z,11.73
2019-06-10T22:17:23.185Z,10.50
2019-06-10T22:21:28.295Z,12.07
2019-06-10T22:25:33.402Z,14.20
2019-06-10T22:29:38.657Z,11.40
2019-06-10T22:33:43.794Z,11.47
2019-06-10T22:37:49.664Z,9.73
2019-06-10T22:41:56.966Z,9.80
2019-06-10T22:46:03.976Z,9.33
2019-06-10T22:50:12.577Z,10.18
2019-06-10T22:54:17.411Z,9.67
2019-06-10T22:58:23.750Z,9.90
2019-06-10T23:02:28.934Z,10.90
2019-06-10T23:06:35.144Z,9.73
2019-06-10T23:10:42.651Z,14.43
2019-06-10T23:14:48.591Z,10.10
2019-06-10T23:18:55.617Z,9.60
2019-06-10T23:23:03.053Z,9.87
2019-06-10T23:27:07.328Z,9.97
2019-06-10T23:31:12.891Z,8.13
2019-06-10T23:35:18.049Z,8.30
2019-06-10T23:39:23.116Z,11.97
2019-06-10T23:43:28.187Z,8.67
2019-06-10T23:47:33.280Z,9.53
2019-06-10T23:51:38.651Z,9.13
2019-06-10T23:55:43.781Z,8.97
2019-06-10T23:59:48.781Z,8.87
